sensor_id;sensor_type;location;lat;lon;timestamp;P1;durP1;ratioP1;P2;durP2;ratioP2
84917;SDS011;75182;51.736;5.318;2024-03-02T00:06:22;6.68;;;1.35;;
84917;SDS011;75182;51.736;5.318;2024-03-02T00:16:23;1.63;;;0.53;;
84917;SDS011;75182;51.736;5.318;2024-03-02T00:26:24;2.13;;;0.70;;
84917;SDS011;75182;51.736;5.318;2024-03-02T00:36:24;1.58;;;0.70;;
84917;SDS011;75182;51.736;5.318;2024-03-02T00:46:32;1.60;;;0.40;;
84917;SDS011;75182;51.736;5.318;2024-03-02T00:56:35;1.98;;;0.60;;
84917;SDS011;75182;51.736;5.318;2024-03-02T01:06:35;2.33;;;0.60;;
84917;SDS011;75182;51.736;5.318;2024-03-02T01:16:36;1.33;;;0.50;;
84917;SDS011;75182;51.736;5.318;2024-03-02T01:26:36;1.63;;;0.60;;
84917;SDS011;75182;51.736;5.318;2024-03-02T01:36:36;1.35;;;0.50;;
84917;SDS011;75182;51.736;5.318;2024-03-02T01:46:37;1.80;;;0.70;;
84917;SDS011;75182;51.736;5.318;2024-03-02T01:56:37;1.65;;;0.50;;
84917;SDS011;75182;51.736;5.318;2024-03-02T02:06:37;1.95;;;0.52;;
84917;SDS011;75182;51.736;5.318;2024-03-02T02:16:37;2.20;;;0.40;;
84917;SDS011;75182;51.736;5.318;2024-03-02T02:26:38;3.00;;;0.70;;
84917;SDS011;75182;51.736;5.318;2024-03-02T02:36:39;2.15;;;0.90;;
84917;SDS011;75182;51.736;5.318;2024-03-02T02:46:40;1.45;;;0.50;;
84917;SDS011;75182;51.736;5.318;2024-03-02T02:56:41;2.13;;;0.70;;
84917;SDS011;75182;51.736;5.318;2024-03-02T03:06:41;2.50;;;0.60;;
84917;SDS011;75182;51.736;5.318;2024-03-02T03:16:41;1.63;;;0.50;;
84917;SDS011;75182;51.736;5.318;2024-03-02T03:26:41;1.55;;;0.50;;
84917;SDS011;75182;51.736;5.318;2024-03-02T03:36:42;1.50;;;0.60;;
84917;SDS011;75182;51.736;5.318;2024-03-02T03:46:43;1.10;;;0.40;;
84917;SDS011;75182;51.736;5.318;2024-03-02T03:56:43;1.20;;;0.40;;
84917;SDS011;75182;51.736;5.318;2024-03-02T04:06:44;1.08;;;0.40;;
84917;SDS011;75182;51.736;5.318;2024-03-02T04:16:44;0.90;;;0.30;;
84917;SDS011;75182;51.736;5.318;2024-03-02T04:26:44;1.67;;;0.30;;
84917;SDS011;75182;51.736;5.318;2024-03-02T04:36:45;2.17;;;0.40;;
84917;SDS011;75182;51.736;5.318;2024-03-02T04:46:45;1.02;;;0.30;;
84917;SDS011;75182;51.736;5.318;2024-03-02T04:56:45;1.75;;;0.43;;
84917;SDS011;75182;51.736;5.318;2024-03-02T05:06:49;2.55;;;0.50;;
84917;SDS011;75182;51.736;5.318;2024-03-02T05:16:52;2.10;;;0.50;;
84917;SDS011;75182;51.736;5.318;2024-03-02T05:26:52;1.13;;;0.40;;
84917;SDS011;75182;51.736;5.318;2024-03-02T05:36:53;2.38;;;0.50;;
84917;SDS011;75182;51.736;5.318;2024-03-02T05:46:53;2.47;;;0.52;;
84917;SDS011;75182;51.736;5.318;2024-03-02T05:56:54;4.05;;;0.70;;
84917;SDS011;75182;51.736;5.318;2024-03-02T06:06:54;2.45;;;0.70;;
84917;SDS011;75182;51.736;5.318;2024-03-02T06:16:56;2.67;;;0.60;;
84917;SDS011;75182;51.736;5.318;2024-03-02T06:26:56;1.60;;;0.30;;
84917;SDS011;75182;51.736;5.318;2024-03-02T06:36:56;4.32;;;0.63;;
84917;SDS011;75182;51.736;5.318;2024-03-02T06:46:57;1.75;;;0.50;;
84917;SDS011;75182;51.736;5.318;2024-03-02T06:56:57;0.95;;;0.43;;
84917;SDS011;75182;51.736;5.318;2024-03-02T07:06:57;3.05;;;0.70;;
84917;SDS011;75182;51.736;5.318;2024-03-02T07:16:58;1.42;;;0.50;;
84917;SDS011;75182;51.736;5.318;2024-03-02T07:26:58;2.30;;;0.60;;
84917;SDS011;75182;51.736;5.318;2024-03-02T07:36:58;2.65;;;0.60;;
84917;SDS011;75182;51.736;5.318;2024-03-02T07:46:59;1.88;;;0.60;;
84917;SDS011;75182;51.736;5.318;2024-03-02T07:56:59;1.45;;;0.40;;
84917;SDS011;75182;51.736;5.318;2024-03-02T08:07:00;4.33;;;0.90;;
84917;SDS011;75182;51.736;5.318;2024-03-02T08:17:00;2.72;;;0.50;;
84917;SDS011;75182;51.736;5.318;2024-03-02T08:27:01;3.50;;;0.70;;
84917;SDS011;75182;51.736;5.318;2024-03-02T08:37:02;4.47;;;0.90;;
84917;SDS011;75182;51.736;5.318;2024-03-02T08:47:03;3.60;;;0.80;;
84917;SDS011;75182;51.736;5.318;2024-03-02T08:57:03;3.20;;;0.73;;
84917;SDS011;75182;51.736;5.318;2024-03-02T09:07:04;4.05;;;1.05;;
84917;SDS011;75182;51.736;5.318;2024-03-02T09:17:04;3.50;;;0.80;;
84917;SDS011;75182;51.736;5.318;2024-03-02T09:27:05;3.93;;;1.13;;
84917;SDS011;75182;51.736;5.318;2024-03-02T09:37:05;6.23;;;1.17;;
84917;SDS011;75182;51.736;5.318;2024-03-02T09:47:06;4.80;;;1.00;;
84917;SDS011;75182;51.736;5.318;2024-03-02T09:57:07;5.50;;;0.90;;
84917;SDS011;75182;51.736;5.318;2024-03-02T10:07:12;2.80;;;0.80;;
84917;SDS011;75182;51.736;5.318;2024-03-02T10:17:17;2.90;;;0.90;;
84917;SDS011;75182;51.736;5.318;2024-03-02T10:27:19;4.05;;;1.17;;
84917;SDS011;75182;51.736;5.318;2024-03-02T10:37:23;2.85;;;1.20;;
84917;SDS011;75182;51.736;5.318;2024-03-02T10:47:24;4.37;;;1.03;;
84917;SDS011;75182;51.736;5.318;2024-03-02T10:57:27;4.22;;;0.98;;
84917;SDS011;75182;51.736;5.318;2024-03-02T11:07:37;2.92;;;0.60;;
84917;SDS011;75182;51.736;5.318;2024-03-02T11:17:39;3.78;;;1.10;;
84917;SDS011;75182;51.736;5.318;2024-03-02T11:37:46;5.75;;;1.10;;
84917;SDS011;75182;51.736;5.318;2024-03-02T11:47:49;4.60;;;1.27;;
84917;SDS011;75182;51.736;5.318;2024-03-02T11:57:52;5.57;;;1.05;;
84917;SDS011;75182;51.736;5.318;2024-03-02T12:08:02;4.20;;;0.77;;
84917;SDS011;75182;51.736;5.318;2024-03-02T12:18:04;4.40;;;0.93;;
84917;SDS011;75182;51.736;5.318;2024-03-02T12:28:05;4.45;;;1.10;;
84917;SDS011;75182;51.736;5.318;2024-03-02T12:38:06;6.03;;;1.07;;
84917;SDS011;75182;51.736;5.318;2024-03-02T12:48:06;4.75;;;1.00;;
84917;SDS011;75182;51.736;5.318;2024-03-02T12:58:06;5.03;;;1.00;;
84917;SDS011;75182;51.736;5.318;2024-03-02T13:08:07;3.90;;;1.00;;
84917;SDS011;75182;51.736;5.318;2024-03-02T13:18:07;5.20;;;1.02;;
84917;SDS011;75182;51.736;5.318;2024-03-02T13:28:09;4.47;;;1.33;;
84917;SDS011;75182;51.736;5.318;2024-03-02T13:38:09;6.38;;;1.15;;
84917;SDS011;75182;51.736;5.318;2024-03-02T13:48:10;2.83;;;0.80;;
84917;SDS011;75182;51.736;5.318;2024-03-02T13:58:10;4.10;;;1.15;;
84917;SDS011;75182;51.736;5.318;2024-03-02T14:08:11;6.82;;;1.50;;
84917;SDS011;75182;51.736;5.318;2024-03-02T14:18:11;4.68;;;1.00;;
84917;SDS011;75182;51.736;5.318;2024-03-02T14:28:12;4.88;;;1.23;;
84917;SDS011;75182;51.736;5.318;2024-03-02T14:38:12;5.32;;;0.95;;
84917;SDS011;75182;51.736;5.318;2024-03-02T14:48:13;5.80;;;1.10;;
84917;SDS011;75182;51.736;5.318;2024-03-02T14:58:14;2.78;;;1.15;;
84917;SDS011;75182;51.736;5.318;2024-03-02T15:08:15;4.57;;;1.10;;
84917;SDS011;75182;51.736;5.318;2024-03-02T15:18:16;4.70;;;1.10;;
84917;SDS011;75182;51.736;5.318;2024-03-02T15:28:16;3.55;;;0.85;;
84917;SDS011;75182;51.736;5.318;2024-03-02T15:38:17;3.15;;;0.90;;
84917;SDS011;75182;51.736;5.318;2024-03-02T15:48:17;3.58;;;0.80;;
84917;SDS011;75182;51.736;5.318;2024-03-02T15:58:18;3.53;;;1.10;;
84917;SDS011;75182;51.736;5.318;2024-03-02T16:08:18;3.00;;;0.90;;
84917;SDS011;75182;51.736;5.318;2024-03-02T16:18:19;2.45;;;0.75;;
84917;SDS011;75182;51.736;5.318;2024-03-02T16:28:19;2.20;;;0.70;;
84917;SDS011;75182;51.736;5.318;2024-03-02T16:38:19;3.00;;;1.00;;
84917;SDS011;75182;51.736;5.318;2024-03-02T16:48:20;3.47;;;1.05;;
84917;SDS011;75182;51.736;5.318;2024-03-02T16:58:20;2.83;;;0.90;;
84917;SDS011;75182;51.736;5.318;2024-03-02T17:08:21;3.78;;;1.40;;
84917;SDS011;75182;51.736;5.318;2024-03-02T17:18:21;4.38;;;1.35;;
84917;SDS011;75182;51.736;5.318;2024-03-02T17:28:22;5.55;;;1.30;;
84917;SDS011;75182;51.736;5.318;2024-03-02T17:38:23;3.60;;;1.30;;
84917;SDS011;75182;51.736;5.318;2024-03-02T17:48:23;2.97;;;1.17;;
84917;SDS011;75182;51.736;5.318;2024-03-02T17:58:25;4.82;;;1.70;;
84917;SDS011;75182;51.736;5.318;2024-03-02T18:08:25;3.33;;;1.42;;
84917;SDS011;75182;51.736;5.318;2024-03-02T18:18:25;3.00;;;1.60;;
84917;SDS011;75182;51.736;5.318;2024-03-02T18:28:26;4.30;;;1.85;;
84917;SDS011;75182;51.736;5.318;2024-03-02T18:38:26;3.60;;;1.65;;
84917;SDS011;75182;51.736;5.318;2024-03-02T18:48:27;4.55;;;1.90;;
84917;SDS011;75182;51.736;5.318;2024-03-02T18:58:27;3.80;;;1.33;;
84917;SDS011;75182;51.736;5.318;2024-03-02T19:08:28;3.10;;;1.30;;
84917;SDS011;75182;51.736;5.318;2024-03-02T19:18:29;5.07;;;1.60;;
84917;SDS011;75182;51.736;5.318;2024-03-02T19:28:29;3.72;;;2.13;;
84917;SDS011;75182;51.736;5.318;2024-03-02T19:38:30;3.83;;;1.73;;
84917;SDS011;75182;51.736;5.318;2024-03-02T19:48:33;3.33;;;1.70;;
84917;SDS011;75182;51.736;5.318;2024-03-02T19:58:34;4.95;;;2.40;;
84917;SDS011;75182;51.736;5.318;2024-03-02T20:08:36;4.18;;;1.85;;
84917;SDS011;75182;51.736;5.318;2024-03-02T20:18:37;8.43;;;2.25;;
84917;SDS011;75182;51.736;5.318;2024-03-02T20:28:37;5.93;;;2.38;;
84917;SDS011;75182;51.736;5.318;2024-03-02T20:38:38;6.18;;;2.38;;
84917;SDS011;75182;51.736;5.318;2024-03-02T20:48:38;4.78;;;2.30;;
84917;SDS011;75182;51.736;5.318;2024-03-02T20:58:39;4.20;;;2.67;;
84917;SDS011;75182;51.736;5.318;2024-03-02T21:08:41;4.75;;;2.50;;
84917;SDS011;75182;51.736;5.318;2024-03-02T21:18:41;6.82;;;2.75;;
84917;SDS011;75182;51.736;5.318;2024-03-02T21:28:42;6.43;;;2.58;;
84917;SDS011;75182;51.736;5.318;2024-03-02T21:38:42;4.18;;;1.98;;
84917;SDS011;75182;51.736;5.318;2024-03-02T21:48:43;4.43;;;2.20;;
84917;SDS011;75182;51.736;5.318;2024-03-02T21:58:43;4.97;;;2.03;;
84917;SDS011;75182;51.736;5.318;2024-03-02T22:08:43;5.75;;;2.25;;
84917;SDS011;75182;51.736;5.318;2024-03-02T22:18:44;4.27;;;2.03;;
84917;SDS011;75182;51.736;5.318;2024-03-02T22:28:44;4.07;;;2.40;;
84917;SDS011;75182;51.736;5.318;2024-03-02T22:38:45;4.18;;;2.47;;
84917;SDS011;75182;51.736;5.318;2024-03-02T22:48:45;4.30;;;2.07;;
84917;SDS011;75182;51.736;5.318;2024-03-02T22:58:47;5.22;;;2.55;;
84917;SDS011;75182;51.736;5.318;2024-03-02T23:08:47;5.47;;;2.70;;
84917;SDS011;75182;51.736;5.318;2024-03-02T23:18:47;4.72;;;2.88;;
84917;SDS011;75182;51.736;5.318;2024-03-02T23:28:49;3.85;;;2.33;;
84917;SDS011;75182;51.736;5.318;2024-03-02T23:38:50;4.38;;;2.83;;
84917;SDS011;75182;51.736;5.318;2024-03-02T23:48:50;4.18;;;2.63;;
84917;SDS011;75182;51.736;5.318;2024-03-02T23:58:50;5.82;;;2.17;;
